EW8558 Weather Reports


Display with metric or nautical units.
time (UTC)temp
F
wind
direction
speed
MPH
gust
MPH
rain 1hr
in
rain 24hr
in
rain mn
in
humidity
%
barometer
mb
20171217135643 42 270 5.0 11.0 0.00 0.13 0.02 90 1021.7
20171217134142 42 273 6.0 10.0 0.00 0.13 0.02 88 1021.7
20171217132726 42 276 5.0 9.0 0.00 0.13 0.02 87 1021.7
20171217131232 42 265 4.0 10.0 0.00 0.13 0.02 86 1021.8
20171217125649 43 268 5.0 9.0 0.00 0.13 0.02 83 1021.9
20171217124129 43 265 4.0 7.0 0.00 0.13 0.02 82 1021.7
20171217122647 43 268 6.0 11.0 0.00 0.13 0.02 82 1021.8
20171217121128 43 260 6.0 11.0 0.00 0.13 0.02 83 1021.7
20171217115649 43 268 6.0 10.0 0.00 0.13 0.02 85 1021.7
20171217114125 43 268 2.0 8.0 0.00 0.13 0.02 87 1021.8
20171217112627 42 276 2.0 8.0 0.00 0.13 0.02 87 1021.9
20171217111126 42 307 3.0 8.0 0.00 0.13 0.02 87 1022.0
20171217105646 42 284 6.0 10.0 0.00 0.13 0.02 86 1022.0
20171217104126 41 239 7.0 10.0 0.00 0.13 0.02 86 1022.1
20171217102654 42 268 4.0 7.0 0.00 0.13 0.02 86 1022.2
20171217101128 41 265 1.0 4.0 0.00 0.13 0.02 88 1022.4
20171217095615 40 273 2.0 5.0 0.00 0.13 0.02 88 1022.2
20171217094104 40 273 3.0 6.0 0.00 0.13 0.02 87 1022.2
20171217092613 40 266 4.0 6.0 0.00 0.13 0.02 88 1022.0
20171217091105 38 268 4.0 7.0 0.00 0.13 0.02 90 1022.0
20171217085613 39 274 5.0 8.0 0.00 0.13 0.02 89 1021.9
20171217083907 39 263 5.0 8.0 0.00 0.13 0.02 88 1021.7
20171217082307 40 270 2.0 4.0 0.00 0.13 0.02 86 1021.5
20171217080606 40 267 3.0 5.0 0.00 0.13 0.02 85 1021.4
20171217075006 41 268 1.0 5.0 0.00 0.13 0.02 85 1021.2
20171217073204 40 265 2.0 5.0 0.00 0.13 0.02 87 1021.1
20171217071531 39 266 5.0 6.0 0.00 0.13 0.02 88 1021.0
20171217065912 39 276 2.0 4.0 0.00 0.13 0.02 87 1021.0
20171217064315 39 273 0.0 2.0 0.00 0.13 0.02 87 1020.7
20171217062629 39 273 0.0 2.0 0.00 0.13 0.02 87 1020.7
20171217061011 39 275 0.0 4.0 0.00 0.13 0.02 87 1020.5
20171217055226 39 21 0.0 0.0 0.00 0.14 0.02 86 1020.2
20171217053503 40 21 0.0 2.0 0.00 0.14 0.02 84 1020.0
20171217051903 40 33 0.0 3.0 0.00 0.14 0.02 83 1019.9
20171217050325 40 41 0.0 4.0 0.00 0.14 0.02 85 1019.8
20171217044555 39 45 0.0 5.0 0.00 0.14 0.02 88 1019.6
20171217043104 39 24 0.0 1.0 0.00 0.14 0.02 87 1019.5
20171217041243 39 24 0.0 1.0 0.00 0.14 0.02 88 1019.2
20171217035647 39 59 0.0 1.0 0.02 0.14 0.02 89 1019.1
20171217034041 39 257 0.0 0.0 0.02 0.14 0.02 89 1019.0
20171217032241 40 33 0.0 2.0 0.02 0.14 0.02 89 1018.9
20171217030617 40 35 0.0 8.0 0.02 0.14 0.02 89 1018.8
20171217024806 41 193 0.0 4.0 0.00 0.12 0.00 86 1018.6
20171217023133 41 351 1.0 6.0 0.00 0.12 0.00 86 1018.4
20171217021808 41 36 1.0 5.0 0.00 0.12 0.00 86 1018.4
20171217015816 41 76 1.0 6.0 0.00 0.12 0.00 87 1018.3
20171217014215 40 45 1.0 4.0 0.00 0.12 0.00 88 1018.2
20171217012607 40 38 1.0 6.0 0.00 0.12 0.00 89 1017.9
20171217010822 39 249 0.0 5.0 0.00 0.12 0.00 91 1017.7
20171217005203 39 267 3.0 7.0 0.00 0.12 0.00 91 1017.7
20171217003502 39 270 3.0 8.0 0.00 0.12 0.00 91 1017.6
20171217001805 39 269 3.0 6.0 0.00 0.12 0.00 89 1017.6
20171217000220 39 229 0.0 5.0 0.00 0.12 0.00 90 1017.5
20171216234505 38 274 3.0 7.0 0.00 0.13 0.00 92 1017.4
20171216232924 38 265 3.0 9.0 0.00 0.13 0.00 92 1017.3
20171216231314 38 269 3.0 8.0 0.02 0.13 0.00 93 1017.3
20171216225657 38 277 4.0 10.0 0.02 0.13 0.13 93 1017.1
20171216224007 37 273 4.0 9.0 0.02 0.13 0.13 94 1017.0
20171216222220 37 282 4.0 9.0 0.02 0.13 0.13 93 1016.9
20171216220604 38 231 6.0 11.0 0.02 0.12 0.12 92 1016.7
20171216215009 38 265 3.0 7.0 0.02 0.12 0.12 92 1016.5
20171216213205 38 30 0.0 8.0 0.04 0.12 0.12 92 1016.6
20171216211521 38 289 6.0 13.0 0.03 0.10 0.10 93 1016.5
20171216205904 38 271 5.0 11.0 0.02 0.09 0.09 92 1016.4
20171216204311 38 275 6.0 11.0 0.02 0.09 0.09 91 1016.3
20171216202509 39 268 2.0 13.0 0.01 0.08 0.08 92 1016.4
20171216200904 38 275 5.0 11.0 0.00 0.07 0.07 92 1016.3
20171216195303 38 265 5.0 11.0 0.00 0.07 0.07 92 1016.1
20171216193615 39 277 2.0 7.0 0.00 0.07 0.07 90 1016.0
20171216191903 39 248 2.0 15.0 0.01 0.07 0.07 90 1015.7
20171216190211 39 266 5.0 13.0 0.01 0.07 0.07 89 1015.6
20171216184625 39 258 6.0 15.0 0.01 0.07 0.07 90 1015.4
20171216182903 40 281 10.0 18.0 0.00 0.06 0.06 87 1015.1
20171216181216 40 19 2.0 8.0 0.00 0.06 0.06 87 1014.8
20171216175726 40 152 1.0 9.0 0.00 0.06 0.06 85 1014.8
20171216173914 41 355 2.0 7.0 0.00 0.06 0.06 84 1014.5
20171216172403 41 33 2.0 10.0 0.00 0.06 0.06 84 1014.3
20171216170844 41 357 1.0 7.0 0.00 0.06 0.06 84 1014.2
20171216164909 41 338 2.0 9.0 0.01 0.06 0.06 84 1014.0
20171216163232 41 35 2.0 10.0 0.01 0.06 0.06 83 1013.9
20171216161635 41 265 2.0 13.0 0.02 0.06 0.06 85 1013.8
20171216155930 41 351 0.0 11.0 0.02 0.06 0.06 87 1013.6
20171216154331 41 256 7.0 14.0 0.02 0.06 0.06 84 1013.3
20171216152511 41 339 1.0 10.0 0.02 0.05 0.05 86 1013.1
20171216150911 41 277 2.0 14.0 0.02 0.05 0.05 88 1013.0
20171216145238 41 191 1.0 5.0 0.02 0.04 0.04 87 1012.8
20171216143302 42 272 5.0 14.0 0.00 0.02 0.02 85 1012.5
20171216141205 43 40 2.0 11.0 0.00 0.02 0.02 79 1012.3